createdAt,value
2022-12-19T00:00:49.595Z,99406.16
2022-12-19T00:01:50.971Z,99412.16
2022-12-19T00:02:52.399Z,99424.16
2022-12-19T00:03:55.187Z,99413.75
2022-12-19T00:04:56.440Z,99410.56
2022-12-19T00:06:00.857Z,99424.34
2022-12-19T00:07:02.060Z,99427.97
2022-12-19T00:08:13.945Z,99416.16
2022-12-19T00:09:18.941Z,99423.16
2022-12-19T00:10:20.125Z,99417.94
2022-12-19T00:11:22.307Z,99419.38
2022-12-19T00:12:26.358Z,99416.78
2022-12-19T00:13:29.062Z,99408.16
2022-12-19T00:14:32.420Z,99412.38
2022-12-19T00:15:33.947Z,99421.56
2022-12-19T00:16:35.327Z,99414.56
2022-12-19T00:17:36.846Z,99408.56
2022-12-19T00:18:40.131Z,99408.97
2022-12-19T00:19:41.360Z,99398.56
2022-12-19T00:20:42.562Z,99398.56
2022-12-19T00:21:43.783Z,99404.78
2022-12-19T00:22:45.050Z,99402.59
2022-12-19T00:23:46.450Z,99398.19
2022-12-19T00:24:47.918Z,99391.97
2022-12-19T00:25:49.143Z,99390.97
2022-12-19T00:26:51.738Z,99393.41
2022-12-19T00:27:53.002Z,99387.78
2022-12-19T00:28:55.471Z,99389.00
2022-12-19T00:29:58.788Z,99387.59
2022-12-19T00:31:00.582Z,99391.38
2022-12-19T00:32:02.555Z,99391.19
2022-12-19T00:33:03.839Z,99381.97
2022-12-19T00:34:05.038Z,99388.00
2022-12-19T00:35:06.618Z,99382.97
2022-12-19T00:36:12.965Z,99383.78
2022-12-19T00:37:14.198Z,99368.38
2022-12-19T00:38:15.441Z,99373.78
2022-12-19T00:39:16.642Z,99365.97
2022-12-19T00:40:20.171Z,99363.59
2022-12-19T00:41:25.436Z,99361.78
2022-12-19T00:42:28.088Z,99369.19
2022-12-19T00:43:29.989Z,99368.59
2022-12-19T00:44:31.216Z,99376.00
2022-12-19T00:45:33.163Z,99379.78
2022-12-19T00:46:35.096Z,99381.00
2022-12-19T00:47:36.282Z,99367.78
2022-12-19T00:48:37.534Z,99369.19
2022-12-19T00:49:38.743Z,99367.59
2022-12-19T00:50:40.174Z,99369.00
2022-12-19T00:51:41.464Z,99371.38
2022-12-19T00:52:43.037Z,99369.56
2022-12-19T00:53:45.193Z,99366.19
2022-12-19T00:54:46.427Z,99358.59
2022-12-19T00:55:47.661Z,99366.38
2022-12-19T00:56:48.845Z,99365.38
2022-12-19T00:57:50.126Z,99363.97
2022-12-19T00:58:54.306Z,99362.19
2022-12-19T00:59:55.730Z,99357.78
2022-12-19T01:00:57.201Z,99355.38
2022-12-19T01:01:58.726Z,99360.16
2022-12-19T01:03:00.140Z,99361.97
2022-12-19T01:04:27.847Z,99355.78
2022-12-19T01:05:25.829Z,99356.78
2022-12-19T01:06:27.567Z,99359.19
2022-12-19T01:07:29.294Z,99362.16
2022-12-19T01:08:30.750Z,99361.78
2022-12-19T01:09:33.284Z,99348.56
2022-12-19T01:10:34.588Z,99360.38
2022-12-19T01:11:35.869Z,99350.56
2022-12-19T01:12:37.078Z,99357.56
2022-12-19T01:13:39.260Z,99356.97
2022-12-19T01:14:43.441Z,99352.78
2022-12-19T01:15:44.674Z,99351.75
2022-12-19T01:16:45.933Z,99348.19
2022-12-19T01:17:48.073Z,99345.16
2022-12-19T01:18:49.271Z,99341.75
2022-12-19T01:19:50.508Z,99339.97
2022-12-19T01:20:51.768Z,99328.53
2022-12-19T01:21:53.399Z,99330.34
2022-12-19T01:22:54.630Z,99332.94
2022-12-19T01:23:55.905Z,99329.75
2022-12-19T01:24:57.537Z,99332.53
2022-12-19T01:25:58.860Z,99342.56
2022-12-19T01:27:00.115Z,99345.75
2022-12-19T01:28:01.470Z,99359.34
2022-12-19T01:29:04.225Z,99349.34
2022-12-19T01:30:05.894Z,99342.75
2022-12-19T01:31:07.637Z,99341.97
2022-12-19T01:32:10.546Z,99338.75
2022-12-19T01:33:12.364Z,99348.75
2022-12-19T01:34:13.625Z,99333.34
2022-12-19T01:35:21.722Z,99348.34
2022-12-19T01:36:23.518Z,99349.16
2022-12-19T01:37:24.757Z,99345.75
2022-12-19T01:38:26.002Z,99349.16
2022-12-19T01:39:27.617Z,99341.13
2022-12-19T01:40:31.681Z,99344.56
2022-12-19T01:41:32.889Z,99342.53
2022-12-19T01:42:35.501Z,99338.31
2022-12-19T01:43:56.948Z,99335.94
2022-12-19T01:45:18.392Z,99332.31
2022-12-19T01:46:25.380Z,99322.13
2022-12-19T01:47:29.089Z,99332.72
2022-12-19T01:48:34.622Z,99324.50
2022-12-19T01:49:36.897Z,99323.31
2022-12-19T01:50:43.954Z,99331.13
2022-12-19T01:52:02.481Z,99328.88
2022-12-19T01:53:05.169Z,99320.06
2022-12-19T01:54:11.404Z,99321.69
2022-12-19T01:55:13.192Z,99320.91
2022-12-19T01:56:15.205Z,99294.31
2022-12-19T01:57:19.598Z,99296.91
2022-12-19T01:58:21.263Z,99297.31
2022-12-19T01:59:25.113Z,99299.91
2022-12-19T02:00:26.355Z,99293.69
2022-12-19T02:01:27.740Z,99293.47
2022-12-19T02:02:33.835Z,99302.06
2022-12-19T02:03:36.992Z,99305.22
2022-12-19T02:04:38.887Z,99307.81
2022-12-19T02:05:40.707Z,99295.03
2022-12-19T02:06:43.443Z,99300.44
2022-12-19T02:07:44.908Z,99305.44
2022-12-19T02:08:47.223Z,99297.84
2022-12-19T02:09:56.655Z,99297.41
2022-12-19T02:11:01.751Z,99298.63
2022-12-19T02:12:04.255Z,99298.81
2022-12-19T02:13:07.797Z,99292.03
2022-12-19T02:14:09.173Z,99285.44
2022-12-19T02:15:10.851Z,99292.47
2022-12-19T02:16:22.878Z,99288.22
2022-12-19T02:17:32.575Z,99282.63
2022-12-19T02:18:47.191Z,99286.03
2022-12-19T02:19:48.459Z,99275.63
2022-12-19T02:20:52.144Z,99277.22
2022-12-19T02:21:54.737Z,99274.59
2022-12-19T02:23:09.522Z,99279.03
2022-12-19T02:24:29.377Z,99290.41
2022-12-19T02:25:56.639Z,99287.59
2022-12-19T02:27:12.567Z,99296.00
2022-12-19T02:28:29.640Z,99295.00
2022-12-19T02:29:37.699Z,99301.00
2022-12-19T02:30:52.648Z,99302.59
2022-12-19T02:31:58.550Z,99297.97
2022-12-19T02:33:03.544Z,99289.97
2022-12-19T02:34:22.548Z,99283.16
2022-12-19T02:35:37.362Z,99275.97
2022-12-19T02:36:43.486Z,99266.53
2022-12-19T02:37:49.563Z,99262.94
2022-12-19T02:38:58.552Z,99260.53
2022-12-19T02:40:20.229Z,99262.13
2022-12-19T02:41:25.855Z,99261.72
2022-12-19T02:42:32.234Z,99258.09
2022-12-19T02:43:38.746Z,99248.69
2022-12-19T02:44:49.850Z,99260.13
2022-12-19T02:45:52.201Z,99258.91
2022-12-19T02:46:55.109Z,99253.28
2022-12-19T02:48:02.331Z,99254.47
2022-12-19T02:49:06.034Z,99265.91
2022-12-19T02:50:08.364Z,99279.91
2022-12-19T02:51:09.635Z,99282.72
2022-12-19T02:52:32.660Z,99288.31
2022-12-19T02:53:35.501Z,99281.13
2022-12-19T02:54:37.293Z,99282.09
2022-12-19T02:56:01.782Z,99286.72
2022-12-19T02:57:16.805Z,99280.91
2022-12-19T02:58:20.673Z,99273.09
2022-12-19T02:59:40.779Z,99275.25
2022-12-19T03:00:50.960Z,99277.06
2022-12-19T03:02:12.498Z,99279.88
2022-12-19T03:03:21.139Z,99279.09
2022-12-19T03:04:44.225Z,99277.69
2022-12-19T03:06:08.424Z,99277.50
2022-12-19T03:07:18.987Z,99282.66
2022-12-19T03:08:27.786Z,99274.41
2022-12-19T03:09:48.319Z,99290.25
2022-12-19T03:10:55.675Z,99286.06
2022-12-19T03:12:03.047Z,99285.03
2022-12-19T03:13:08.241Z,99277.22
2022-12-19T03:14:12.178Z,99267.03
2022-12-19T03:15:14.255Z,99278.25
2022-12-19T03:16:15.773Z,99278.03
2022-12-19T03:17:20.846Z,99282.88
2022-12-19T03:18:22.154Z,99291.47
2022-12-19T03:19:23.346Z,99293.47
2022-12-19T03:20:43.491Z,99289.44
2022-12-19T03:21:45.981Z,99290.25
2022-12-19T03:22:48.567Z,99292.06
2022-12-19T03:23:52.408Z,99286.06
2022-12-19T03:24:53.733Z,99281.81
2022-12-19T03:25:57.591Z,99280.22
2022-12-19T03:27:04.762Z,99276.59
2022-12-19T03:28:09.271Z,99284.59
2022-12-19T03:29:28.609Z,99281.34
2022-12-19T03:30:31.188Z,99281.97
2022-12-19T03:31:33.466Z,99290.81
2022-12-19T03:32:35.526Z,99291.59
2022-12-19T03:33:38.815Z,99303.03
2022-12-19T03:34:43.280Z,99315.03
2022-12-19T03:35:45.667Z,99302.81
2022-12-19T03:36:48.667Z,99303.81
2022-12-19T03:37:51.526Z,99299.00
2022-12-19T03:38:54.375Z,99296.19
2022-12-19T03:39:59.263Z,99287.53
2022-12-19T03:41:02.313Z,99294.31
2022-12-19T03:42:04.958Z,99296.94
2022-12-19T03:43:07.210Z,99291.72
2022-12-19T03:44:10.163Z,99296.13
2022-12-19T03:45:12.948Z,99298.75
2022-12-19T03:46:18.655Z,99287.91
2022-12-19T03:47:26.657Z,99287.50
2022-12-19T03:48:36.360Z,99288.47
2022-12-19T03:49:37.612Z,99291.31
2022-12-19T03:50:59.121Z,99292.91
2022-12-19T03:52:20.568Z,99288.47
2022-12-19T03:53:31.957Z,99289.09
2022-12-19T03:54:36.371Z,99292.88
2022-12-19T03:55:45.920Z,99282.19
2022-12-19T03:56:54.789Z,99274.00
2022-12-19T03:57:58.216Z,99274.00
2022-12-19T03:59:07.009Z,99274.00
2022-12-19T04:00:10.979Z,99275.78
2022-12-19T04:01:15.382Z,99266.59
2022-12-19T04:02:18.204Z,99264.38
2022-12-19T04:03:20.567Z,99268.56
2022-12-19T04:04:22.815Z,99272.94
2022-12-19T04:05:25.662Z,99279.94
2022-12-19T04:06:29.444Z,99281.75
2022-12-19T04:07:30.987Z,99289.59
2022-12-19T04:08:33.290Z,99283.56
2022-12-19T04:09:36.855Z,99285.97
2022-12-19T04:10:46.795Z,99291.78
2022-12-19T04:11:51.114Z,99290.53
2022-12-19T04:12:58.945Z,99293.75
2022-12-19T04:14:02.538Z,99293.75
2022-12-19T04:15:04.542Z,99286.91
2022-12-19T04:16:16.572Z,99284.13
2022-12-19T04:17:32.910Z,99291.72
2022-12-19T04:18:36.039Z,99286.28
2022-12-19T04:19:43.402Z,99289.50
2022-12-19T04:20:48.360Z,99287.69
2022-12-19T04:21:55.731Z,99283.84
2022-12-19T04:23:01.291Z,99287.47
2022-12-19T04:24:06.351Z,99284.63
2022-12-19T04:25:10.570Z,99281.44
2022-12-19T04:26:12.658Z,99290.66
2022-12-19T04:27:14.156Z,99286.59
2022-12-19T04:28:25.162Z,99289.81
2022-12-19T04:29:28.363Z,99284.59
2022-12-19T04:30:29.762Z,99286.56
2022-12-19T04:31:38.199Z,99281.91
2022-12-19T04:32:41.819Z,99284.75
2022-12-19T04:33:43.173Z,99288.16
2022-12-19T04:34:44.363Z,99287.75
2022-12-19T04:35:45.748Z,99281.06
2022-12-19T04:36:49.250Z,99288.06
2022-12-19T04:37:51.421Z,99284.16
2022-12-19T04:38:52.707Z,99290.97
2022-12-19T04:39:53.948Z,99283.94
2022-12-19T04:40:55.183Z,99284.50
2022-12-19T04:41:56.475Z,99282.91
2022-12-19T04:42:57.666Z,99291.31
2022-12-19T04:43:58.873Z,99288.34
2022-12-19T04:45:00.092Z,99280.22
2022-12-19T04:46:01.466Z,99284.66
2022-12-19T04:47:02.732Z,99285.09
2022-12-19T04:48:03.985Z,99281.63
2022-12-19T04:49:05.305Z,99280.19
2022-12-19T04:50:06.775Z,99284.59
2022-12-19T04:51:08.079Z,99282.16
2022-12-19T04:52:09.281Z,99278.53
2022-12-19T04:53:10.466Z,99277.13
2022-12-19T04:54:12.655Z,99274.19
2022-12-19T04:55:13.912Z,99274.19
2022-12-19T04:56:15.126Z,99280.97
2022-12-19T04:57:16.377Z,99275.53
2022-12-19T04:58:21.666Z,99272.94
2022-12-19T04:59:23.501Z,99271.88
2022-12-19T05:00:25.034Z,99272.28
2022-12-19T05:01:26.369Z,99276.69
2022-12-19T05:02:27.814Z,99272.06
2022-12-19T05:03:29.276Z,99276.19
2022-12-19T05:04:30.551Z,99272.56
2022-12-19T05:05:31.795Z,99279.53
2022-12-19T05:06:33.156Z,99272.28
2022-12-19T05:07:34.377Z,99271.63
2022-12-19T05:08:37.052Z,99271.84
2022-12-19T05:09:38.293Z,99276.91
2022-12-19T05:10:39.523Z,99272.16
2022-12-19T05:11:41.448Z,99273.75
2022-12-19T05:12:42.771Z,99269.31
2022-12-19T05:13:44.152Z,99271.69
2022-12-19T05:14:45.355Z,99269.69
2022-12-19T05:15:54.851Z,99270.47
2022-12-19T05:17:01.199Z,99256.88
2022-12-19T05:18:03.014Z,99258.00
2022-12-19T05:19:04.275Z,99260.41
2022-12-19T05:20:05.935Z,99251.94
2022-12-19T05:21:07.964Z,99253.16
2022-12-19T05:22:09.274Z,99245.75
2022-12-19T05:23:16.314Z,99247.94
2022-12-19T05:24:18.592Z,99256.19
2022-12-19T05:25:19.848Z,99249.50
2022-12-19T05:26:21.104Z,99256.91
2022-12-19T05:27:22.452Z,99250.09
2022-12-19T05:28:23.730Z,99254.06
2022-12-19T05:29:24.906Z,99254.59
2022-12-19T05:30:26.117Z,99253.78
2022-12-19T05:31:27.558Z,99257.84
2022-12-19T05:32:31.996Z,99255.25
2022-12-19T05:33:33.273Z,99248.78
2022-12-19T05:34:34.537Z,99252.78
2022-12-19T05:35:36.408Z,99252.41
2022-12-19T05:36:37.607Z,99249.78
2022-12-19T05:37:38.792Z,99249.78
2022-12-19T05:38:40.058Z,99250.16
2022-12-19T05:39:41.269Z,99249.38
2022-12-19T05:40:42.615Z,99260.16
2022-12-19T05:41:48.837Z,99259.16
2022-12-19T05:42:50.436Z,99260.53
2022-12-19T05:43:53.408Z,99251.69
2022-12-19T05:44:54.643Z,99253.69
2022-12-19T05:45:55.875Z,99255.97
2022-12-19T05:46:57.251Z,99255.97
2022-12-19T05:48:01.278Z,99246.09
2022-12-19T05:49:02.995Z,99253.50
2022-12-19T05:50:04.740Z,99250.66
2022-12-19T05:51:06.332Z,99247.25
2022-12-19T05:52:10.570Z,99249.06
2022-12-19T05:53:11.766Z,99247.03
2022-12-19T05:54:12.984Z,99241.38
2022-12-19T05:55:14.212Z,99247.28
2022-12-19T05:56:17.209Z,99245.72
2022-12-19T05:57:18.503Z,99245.72
2022-12-19T05:58:19.716Z,99243.66
2022-12-19T05:59:21.011Z,99247.28
2022-12-19T06:00:22.323Z,99238.72
2022-12-19T06:01:24.778Z,99243.13
2022-12-19T06:02:26.191Z,99243.59
2022-12-19T06:03:27.645Z,99243.00
2022-12-19T06:04:29.614Z,99242.13
2022-12-19T06:05:31.176Z,99231.44
2022-12-19T06:06:32.360Z,99236.69
2022-12-19T06:07:33.962Z,99235.34
2022-12-19T06:08:36.664Z,99234.44
2022-12-19T06:09:37.892Z,99234.44
2022-12-19T06:10:39.083Z,99234.31
2022-12-19T06:11:40.656Z,99233.16
2022-12-19T06:12:41.851Z,99231.81
2022-12-19T06:13:43.083Z,99237.97
2022-12-19T06:14:44.358Z,99226.72
2022-12-19T06:15:45.663Z,99234.56
2022-12-19T06:16:46.893Z,99236.13
2022-12-19T06:17:48.191Z,99232.63
2022-12-19T06:18:49.882Z,99219.44
2022-12-19T06:19:51.156Z,99227.50
2022-12-19T06:20:56.122Z,99227.88
2022-12-19T06:21:57.352Z,99229.88
2022-12-19T06:22:59.047Z,99225.69
2022-12-19T06:24:00.248Z,99228.97
2022-12-19T06:25:01.513Z,99221.44
2022-12-19T06:26:03.637Z,99228.59
2022-12-19T06:27:05.044Z,99234.63
2022-12-19T06:28:06.331Z,99238.03
2022-12-19T06:29:07.563Z,99242.34
2022-12-19T06:30:09.094Z,99245.06
2022-12-19T06:31:11.590Z,99237.47
2022-12-19T06:32:13.148Z,99251.19
2022-12-19T06:33:14.465Z,99244.38
2022-12-19T06:34:39.507Z,99235.53
2022-12-19T06:35:36.983Z,99243.00
2022-12-19T06:36:41.387Z,99239.50
2022-12-19T06:37:42.603Z,99239.94
2022-12-19T06:38:44.019Z,99238.56
2022-12-19T06:39:45.218Z,99241.63
2022-12-19T06:40:46.455Z,99245.41
2022-12-19T06:41:47.707Z,99238.00
2022-12-19T06:42:48.951Z,99247.09
2022-12-19T06:43:53.328Z,99240.25
2022-12-19T06:44:56.155Z,99241.88
2022-12-19T06:45:57.696Z,99236.84
2022-12-19T06:46:59.082Z,99234.59
2022-12-19T06:48:00.338Z,99229.16
2022-12-19T06:49:01.657Z,99233.13
2022-12-19T06:50:02.956Z,99236.19
2022-12-19T06:51:04.371Z,99237.44
2022-12-19T06:52:09.125Z,99243.47
2022-12-19T06:53:10.565Z,99241.41
2022-12-19T06:54:12.185Z,99231.75
2022-12-19T06:55:13.469Z,99236.97
2022-12-19T06:56:15.531Z,99235.88
2022-12-19T06:57:16.948Z,99233.94
2022-12-19T06:58:22.738Z,99234.50
2022-12-19T06:59:25.371Z,99244.94
2022-12-19T07:00:26.567Z,99231.88
2022-12-19T07:01:43.413Z,99232.69
2022-12-19T07:02:46.549Z,99233.13
2022-12-19T07:03:51.481Z,99238.38
2022-12-19T07:04:57.669Z,99230.28
2022-12-19T07:05:58.877Z,99231.88
2022-12-19T07:07:00.369Z,99230.28
2022-12-19T07:08:01.647Z,99227.69
2022-12-19T07:09:02.828Z,99228.19
2022-12-19T07:10:05.381Z,99233.03
2022-12-19T07:11:06.703Z,99228.47
2022-12-19T07:12:07.971Z,99230.72
2022-12-19T07:13:09.200Z,99236.78
2022-12-19T07:14:10.407Z,99230.53
2022-12-19T07:15:12.101Z,99234.38
2022-12-19T07:16:13.400Z,99231.56
2022-12-19T07:17:14.752Z,99236.19
2022-12-19T07:18:16.214Z,99244.38
2022-12-19T07:19:17.848Z,99236.69
2022-12-19T07:20:20.622Z,99236.38
2022-12-19T07:21:21.857Z,99234.31
2022-12-19T07:22:24.713Z,99231.16
2022-12-19T07:23:26.078Z,99224.22
2022-12-19T07:24:27.497Z,99229.09
2022-12-19T07:25:28.719Z,99232.28
2022-12-19T07:26:30.120Z,99240.94
2022-12-19T07:27:35.860Z,99228.06
2022-12-19T07:28:37.627Z,99233.28
2022-12-19T07:29:38.865Z,99228.53
2022-12-19T07:30:40.093Z,99234.56
2022-12-19T07:31:41.362Z,99239.78
2022-12-19T07:32:42.738Z,99240.56
2022-12-19T07:33:43.969Z,99240.56
2022-12-19T07:34:45.271Z,99244.53
2022-12-19T07:35:46.602Z,99242.94
2022-12-19T07:36:47.852Z,99248.16
2022-12-19T07:37:49.678Z,99249.19
2022-12-19T07:38:51.480Z,99243.75
2022-12-19T07:39:52.768Z,99245.56
2022-12-19T07:40:53.996Z,99240.34
2022-12-19T07:41:55.243Z,99239.09
2022-12-19T07:43:07.201Z,99250.91
2022-12-19T07:44:08.522Z,99245.69
2022-12-19T07:45:10.114Z,99242.19
2022-12-19T07:46:11.567Z,99244.00
2022-12-19T07:47:12.768Z,99236.75
2022-12-19T07:48:13.968Z,99238.91
2022-12-19T07:49:20.995Z,99235.50
2022-12-19T07:50:23.798Z,99233.91
2022-12-19T07:51:25.214Z,99236.75
2022-12-19T07:52:26.568Z,99242.75
2022-12-19T07:53:28.209Z,99239.91
2022-12-19T07:54:29.654Z,99242.31
2022-12-19T07:55:30.873Z,99240.63
2022-12-19T07:56:32.123Z,99243.38
2022-12-19T07:57:33.804Z,99246.31
2022-12-19T07:58:35.059Z,99250.97
2022-12-19T07:59:39.146Z,99242.34
2022-12-19T08:00:40.882Z,99241.91
2022-12-19T08:01:42.252Z,99246.09
2022-12-19T08:02:43.623Z,99240.66
2022-12-19T08:03:45.529Z,99238.81
2022-12-19T08:04:46.752Z,99245.63
2022-12-19T08:05:47.987Z,99247.25
2022-12-19T08:06:49.282Z,99245.19
2022-12-19T08:07:53.861Z,99251.00
2022-12-19T08:08:55.057Z,99247.94
2022-12-19T08:09:56.538Z,99246.69
2022-12-19T08:11:14.461Z,99247.25
2022-12-19T08:12:15.809Z,99247.81
2022-12-19T08:13:17.046Z,99251.56
2022-12-19T08:14:18.281Z,99251.13
2022-12-19T08:15:19.584Z,99253.50
2022-12-19T08:16:20.936Z,99249.09
2022-12-19T08:17:22.355Z,99262.50
2022-12-19T08:18:23.775Z,99257.28
2022-12-19T08:19:27.599Z,99258.06
2022-12-19T08:20:29.186Z,99261.47
2022-12-19T08:21:30.455Z,99262.75
2022-12-19T08:22:31.752Z,99257.28
2022-12-19T08:23:33.021Z,99248.97
2022-12-19T08:24:34.280Z,99261.25
2022-12-19T08:25:38.337Z,99265.47
2022-12-19T08:26:43.203Z,99268.88
2022-12-19T08:27:47.321Z,99263.66
2022-12-19T08:28:48.556Z,99263.44
2022-12-19T08:29:49.816Z,99272.63
2022-12-19T08:30:51.042Z,99267.16
2022-12-19T08:31:52.285Z,99275.59
2022-12-19T08:32:53.531Z,99272.06
2022-12-19T08:33:55.891Z,99272.31
2022-12-19T08:34:57.157Z,99272.84
2022-12-19T08:35:58.472Z,99274.25
2022-12-19T08:36:59.736Z,99276.16
2022-12-19T08:38:00.968Z,99262.28
2022-12-19T08:39:02.267Z,99263.09
2022-12-19T08:40:03.680Z,99265.56
2022-12-19T08:41:05.504Z,99256.69
2022-12-19T08:42:06.896Z,99264.34
2022-12-19T08:43:08.103Z,99249.44
2022-12-19T08:44:10.814Z,99258.88
2022-12-19T08:45:12.487Z,99260.00
2022-12-19T08:46:13.912Z,99265.00
2022-12-19T08:47:15.502Z,99259.53
2022-12-19T08:48:17.470Z,99265.34
2022-12-19T08:49:19.030Z,99263.53
2022-12-19T08:50:20.267Z,99269.31
2022-12-19T08:51:21.529Z,99254.41
2022-12-19T08:52:23.095Z,99253.41
2022-12-19T08:53:26.544Z,99252.13
2022-12-19T08:54:28.108Z,99256.31
2022-12-19T08:55:29.440Z,99247.22
2022-12-19T08:56:32.698Z,99252.22
2022-12-19T08:57:33.943Z,99246.75
2022-12-19T08:58:35.149Z,99250.19
2022-12-19T08:59:36.403Z,99249.94
2022-12-19T09:00:38.917Z,99239.47
2022-12-19T09:01:40.330Z,99245.06
2022-12-19T09:02:41.790Z,99235.69
2022-12-19T09:04:19.971Z,99232.06
2022-12-19T09:05:57.668Z,99240.81
2022-12-19T09:06:29.258Z,99240.31
2022-12-19T09:07:30.545Z,99245.66
2022-12-19T09:08:32.217Z,99236.00
2022-12-19T09:09:33.453Z,99239.41
2022-12-19T09:10:38.127Z,99232.81
2022-12-19T09:11:39.383Z,99239.41
2022-12-19T09:12:55.742Z,99239.16
2022-12-19T09:13:59.163Z,99240.50
2022-12-19T09:15:00.396Z,99234.28
2022-12-19T09:16:21.386Z,99239.25
2022-12-19T09:17:22.671Z,99234.91
2022-12-19T09:18:24.368Z,99239.00
2022-12-19T09:19:25.851Z,99219.97
2022-12-19T09:20:27.175Z,99228.38
2022-12-19T09:21:29.434Z,99229.16
2022-12-19T09:22:30.837Z,99229.66
2022-12-19T09:23:32.047Z,99224.63
2022-12-19T09:24:33.339Z,99229.84
2022-12-19T09:25:34.532Z,99230.91
2022-12-19T09:26:36.553Z,99237.50
2022-12-19T09:28:01.185Z,99234.41
2022-12-19T09:28:59.079Z,99244.88
2022-12-19T09:30:00.381Z,99230.53
2022-12-19T09:31:02.650Z,99230.13
2022-12-19T09:32:03.957Z,99237.97
2022-12-19T09:33:05.211Z,99240.38
2022-12-19T09:34:06.423Z,99232.53
2022-12-19T09:35:07.764Z,99234.56
2022-12-19T09:36:12.274Z,99238.78
2022-12-19T09:37:16.760Z,99228.88
2022-12-19T09:38:19.158Z,99226.50
2022-12-19T09:39:20.448Z,99227.84
2022-12-19T09:40:21.760Z,99224.75
2022-12-19T09:41:22.977Z,99229.50
2022-12-19T09:42:41.268Z,99230.09
2022-12-19T09:44:01.420Z,99226.97
2022-12-19T09:45:09.979Z,99227.63
2022-12-19T09:46:15.841Z,99222.00
2022-12-19T09:47:18.495Z,99222.38
2022-12-19T09:48:24.474Z,99215.63
2022-12-19T09:49:34.342Z,99218.81
2022-12-19T09:51:09.352Z,99217.28
2022-12-19T09:52:15.435Z,99217.94
2022-12-19T09:53:22.426Z,99216.09
2022-12-19T09:54:27.380Z,99216.56
2022-12-19T09:55:33.047Z,99212.69
2022-12-19T09:56:45.345Z,99213.03
2022-12-19T09:57:50.552Z,99216.97
2022-12-19T09:58:58.423Z,99218.09
2022-12-19T10:00:13.548Z,99219.19
2022-12-19T10:01:17.446Z,99216.78
2022-12-19T10:02:22.078Z,99213.94
2022-12-19T10:03:40.245Z,99222.69
2022-12-19T10:04:47.409Z,99220.06
2022-12-19T10:06:35.707Z,99220.06
2022-12-19T10:08:38.756Z,99216.72
2022-12-19T10:12:35.528Z,99218.88
2022-12-19T10:12:39.853Z,99215.50
2022-12-19T10:12:58.376Z,99216.38
2022-12-19T10:14:00.533Z,99205.38
2022-12-19T10:15:20.310Z,99205.44
2022-12-19T10:16:40.048Z,99202.59
2022-12-19T10:17:59.978Z,99195.75
2022-12-19T10:19:14.879Z,99192.56
2022-12-19T10:20:23.830Z,99194.94
2022-12-19T10:21:59.054Z,99189.94
2022-12-19T10:23:09.141Z,99182.63
2022-12-19T10:24:13.397Z,99191.78
2022-12-19T10:25:17.636Z,99187.31
2022-12-19T10:26:20.494Z,99187.66
2022-12-19T10:27:24.837Z,99195.00
2022-12-19T10:28:45.187Z,99191.91
2022-12-19T10:30:05.269Z,99191.25
2022-12-19T10:31:21.340Z,99197.59
2022-12-19T10:32:42.795Z,99192.47
2022-12-19T10:33:48.191Z,99191.47
2022-12-19T10:34:50.596Z,99190.25
2022-12-19T10:35:57.531Z,99183.97
2022-12-19T10:37:23.807Z,99179.50
2022-12-19T10:38:46.161Z,99173.75
2022-12-19T10:40:13.030Z,99170.13
2022-12-19T10:41:34.379Z,99163.78
2022-12-19T10:42:46.382Z,99163.84
2022-12-19T10:43:53.825Z,99161.47
2022-12-19T10:44:57.295Z,99169.88
2022-12-19T10:46:00.576Z,99169.41
2022-12-19T10:47:01.917Z,99160.16
2022-12-19T10:48:09.581Z,99165.69
2022-12-19T10:49:11.719Z,99161.00
2022-12-19T10:50:13.833Z,99162.63
2022-12-19T10:51:23.364Z,99166.31
2022-12-19T10:52:45.303Z,99171.06
2022-12-19T10:53:52.732Z,99161.88
2022-12-19T10:54:54.574Z,99172.91
2022-12-19T10:56:00.410Z,99159.53
2022-12-19T10:57:17.796Z,99166.63
2022-12-19T10:58:24.179Z,99165.03
2022-12-19T10:59:25.365Z,99161.06
2022-12-19T11:00:26.781Z,99167.13
2022-12-19T11:01:40.643Z,99154.78
2022-12-19T11:02:49.426Z,99145.84
2022-12-19T11:03:53.646Z,99145.84
2022-12-19T11:04:55.025Z,99140.34
2022-12-19T11:05:59.947Z,99152.38
2022-12-19T11:07:04.308Z,99147.47
2022-12-19T11:08:08.540Z,99137.47
2022-12-19T11:09:27.914Z,99128.78
2022-12-19T11:10:49.642Z,99128.03
2022-12-19T11:15:50.402Z,99128.13
2022-12-19T11:16:42.845Z,99126.53
2022-12-19T11:19:18.765Z,99125.47
2022-12-19T11:20:24.718Z,99128.94
2022-12-19T11:24:26.545Z,99129.72
2022-12-19T11:29:19.253Z,99126.03
2022-12-19T11:29:26.118Z,99132.84
2022-12-19T11:29:40.545Z,99122.09
2022-12-19T11:29:44.962Z,99127.88
2022-12-19T11:29:46.625Z,99136.25
2022-12-19T11:30:40.970Z,99123.38
2022-12-19T11:30:47.661Z,99129.19
2022-12-19T11:30:48.365Z,99133.63
2022-12-19T11:33:12.424Z,99121.84
2022-12-19T11:34:18.108Z,99119.47
2022-12-19T11:35:24.605Z,99118.59
2022-12-19T11:36:34.718Z,99115.94
2022-12-19T11:37:42.690Z,99108.56
2022-12-19T11:38:46.154Z,99106.72
2022-12-19T11:39:50.063Z,99101.75
2022-12-19T11:40:54.833Z,99104.59
2022-12-19T11:42:00.657Z,99102.22
2022-12-19T11:43:42.494Z,99097.19
2022-12-19T11:44:34.581Z,99103.50
2022-12-19T11:45:51.712Z,99101.09
2022-12-19T11:46:59.046Z,99100.31
2022-12-19T11:48:13.675Z,99102.94
2022-12-19T11:49:28.503Z,99102.66
2022-12-19T11:50:32.105Z,99099.78
2022-12-19T11:51:39.802Z,99103.47
2022-12-19T11:53:07.808Z,99096.66
2022-12-19T11:54:17.061Z,99098.81
2022-12-19T11:55:18.321Z,99086.94
2022-12-19T11:56:21.642Z,99086.69
2022-12-19T11:57:23.314Z,99084.84
2022-12-19T11:58:27.101Z,99092.47
2022-12-19T11:59:34.263Z,99085.66
2022-12-19T12:00:36.639Z,99085.41
2022-12-19T12:01:56.167Z,99082.03
2022-12-19T12:03:16.504Z,99082.53
2022-12-19T12:04:36.681Z,99082.78
2022-12-19T12:05:42.205Z,99079.91
2022-12-19T12:06:50.399Z,99078.56
2022-12-19T12:09:20.523Z,99085.41
2022-12-19T12:14:25.301Z,99088.03
2022-12-19T12:17:29.789Z,99082.03
2022-12-19T12:20:35.776Z,99085.16
2022-12-19T12:21:27.206Z,99084.06
2022-12-19T12:28:23.056Z,99076.50
2022-12-19T12:30:37.486Z,99077.88
2022-12-19T12:30:59.138Z,99080.19
2022-12-19T12:31:10.968Z,99070.44
2022-12-19T12:31:43.408Z,99067.66
2022-12-19T12:31:53.474Z,99068.91
2022-12-19T12:31:54.265Z,99077.34
2022-12-19T12:31:58.267Z,99079.91
2022-12-19T12:32:03.189Z,99074.41
2022-12-19T12:32:03.985Z,99074.16
2022-12-19T12:35:34.977Z,99074.06
2022-12-19T12:35:56.944Z,99074.03
2022-12-19T12:38:16.529Z,99063.91
2022-12-19T12:39:12.997Z,99064.72
2022-12-19T12:40:23.905Z,99055.28
2022-12-19T12:41:57.735Z,99058.19
2022-12-19T12:43:07.751Z,99060.53
2022-12-19T12:44:10.877Z,99056.34
2022-12-19T12:45:38.584Z,99054.75
2022-12-19T12:46:46.077Z,99057.38
2022-12-19T12:47:49.129Z,99051.09
2022-12-19T12:48:53.609Z,99050.78
2022-12-19T12:49:57.506Z,99041.06
2022-12-19T12:50:59.775Z,99045.53
2022-12-19T12:52:02.561Z,99042.09
2022-12-19T12:53:07.102Z,99043.69
2022-12-19T12:54:14.079Z,99042.63
2022-12-19T12:55:18.260Z,99046.81
2022-12-19T12:56:20.010Z,99040.75
2022-12-19T12:57:27.222Z,99042.84
2022-12-19T12:58:43.212Z,99041.78
2022-12-19T12:59:45.325Z,99045.22
2022-12-19T13:01:06.677Z,99038.66
2022-12-19T13:02:14.754Z,99041.28
2022-12-19T13:03:17.439Z,99038.66